createdAt,value
2023-03-07T00:01:36.501Z,66.46
2023-03-07T00:04:05.175Z,66.43
2023-03-07T00:06:44.633Z,66.26
2023-03-07T00:09:13.010Z,66.35
2023-03-07T00:11:41.599Z,66.16
2023-03-07T00:14:10.289Z,65.98
2023-03-07T00:16:38.783Z,66.11
2023-03-07T00:19:08.450Z,66.13
2023-03-07T00:21:38.204Z,66.23
2023-03-07T00:24:07.185Z,66.47
2023-03-07T00:26:39.893Z,66.41
2023-03-07T00:29:13.196Z,66.76
2023-03-07T00:32:01.479Z,66.47
2023-03-07T00:34:30.914Z,66.64
2023-03-07T00:37:00.525Z,66.88
2023-03-07T00:39:28.906Z,66.90
2023-03-07T00:41:57.408Z,66.79
2023-03-07T00:44:27.419Z,66.99
2023-03-07T00:46:56.716Z,67.09
2023-03-07T00:49:25.917Z,67.06
2023-03-07T00:51:55.012Z,67.35
2023-03-07T00:54:23.596Z,67.48
2023-03-07T00:56:53.922Z,67.27
2023-03-07T00:59:22.410Z,67.28
2023-03-07T01:01:50.997Z,67.39
2023-03-07T01:04:22.384Z,67.42
2023-03-07T01:06:52.058Z,67.14
2023-03-07T01:09:22.178Z,67.11
2023-03-07T01:11:51.797Z,67.00
2023-03-07T01:14:25.568Z,66.90
2023-03-07T01:17:09.400Z,66.86
2023-03-07T01:20:05.099Z,66.81
2023-03-07T01:22:46.253Z,66.58
2023-03-07T01:25:27.481Z,66.48
2023-03-07T01:28:11.964Z,66.09
2023-03-07T01:30:59.260Z,66.12
2023-03-07T01:33:30.536Z,65.67
2023-03-07T01:36:04.511Z,65.86
2023-03-07T01:38:38.043Z,65.74
2023-03-07T01:41:10.439Z,65.65
2023-03-07T01:44:09.164Z,65.71
2023-03-07T01:47:11.301Z,65.57
2023-03-07T01:49:58.244Z,65.38
2023-03-07T01:53:00.066Z,65.49
2023-03-07T01:55:42.339Z,65.53
2023-03-07T01:58:29.946Z,65.32
2023-03-07T02:01:11.097Z,65.65
2023-03-07T02:04:19.578Z,65.95
2023-03-07T02:06:51.905Z,65.95
2023-03-07T02:09:28.404Z,65.84
2023-03-07T02:12:23.265Z,65.69
2023-03-07T02:14:54.215Z,65.59
2023-03-07T02:17:32.620Z,65.72
2023-03-07T02:20:41.021Z,65.66
2023-03-07T02:23:52.031Z,65.77
2023-03-07T02:26:54.836Z,65.73
2023-03-07T02:29:36.725Z,65.85
2023-03-07T02:32:16.652Z,65.50
2023-03-07T02:35:03.315Z,65.59
2023-03-07T02:38:00.461Z,65.71
2023-03-07T03:10:55.689Z,65.78
2023-03-07T03:13:30.826Z,65.98
2023-03-07T03:16:00.068Z,66.12
2023-03-07T03:18:28.828Z,65.98
2023-03-07T03:20:57.556Z,66.15
2023-03-07T03:23:29.168Z,66.33
2023-03-07T03:26:05.334Z,66.28
2023-03-07T03:28:35.451Z,66.48
2023-03-07T03:31:06.418Z,66.24
2023-03-07T03:33:36.410Z,66.53
2023-03-07T03:36:09.896Z,66.32
2023-03-07T03:38:39.493Z,66.48
2023-03-07T03:41:12.004Z,66.47
2023-03-07T03:43:40.993Z,66.69
2023-03-07T03:46:09.386Z,66.55
2023-03-07T03:48:38.879Z,66.60
2023-03-07T03:51:11.604Z,66.90
2023-03-07T03:53:40.354Z,66.64
2023-03-07T03:56:13.784Z,66.81
2023-03-07T03:58:43.162Z,66.70
2023-03-07T04:01:12.670Z,66.91
2023-03-07T04:03:46.386Z,66.69
2023-03-07T04:06:16.906Z,66.67
2023-03-07T04:08:51.850Z,66.66
2023-03-07T04:11:21.443Z,66.77
2023-03-07T04:13:50.956Z,66.86
2023-03-07T04:16:22.974Z,66.70
2023-03-07T04:18:52.738Z,66.66
2023-03-07T04:21:21.937Z,66.68
2023-03-07T04:23:58.808Z,66.66
2023-03-07T04:26:30.981Z,66.71
2023-03-07T04:28:59.261Z,66.31
2023-03-07T04:31:32.719Z,66.34
2023-03-07T04:34:03.817Z,66.20
2023-03-07T04:36:32.496Z,66.08
2023-03-07T04:39:01.588Z,66.16
2023-03-07T04:41:32.822Z,65.95
2023-03-07T04:44:08.603Z,65.84
2023-03-07T04:46:37.100Z,65.78
2023-03-07T04:49:05.873Z,65.72
2023-03-07T04:51:34.303Z,65.57
2023-03-07T04:54:02.746Z,65.24
2023-03-07T04:56:31.352Z,65.37
2023-03-07T04:59:00.627Z,65.34
2023-03-07T05:01:29.561Z,65.38
2023-03-07T05:03:59.004Z,65.11
2023-03-07T05:06:27.812Z,64.97
2023-03-07T05:08:56.499Z,65.01
2023-03-07T05:11:26.526Z,64.90
2023-03-07T05:13:57.686Z,64.59
2023-03-07T05:16:26.366Z,64.49
2023-03-07T05:18:54.835Z,64.38
2023-03-07T05:21:23.533Z,64.42
2023-03-07T05:23:53.544Z,64.25
2023-03-07T05:26:22.234Z,63.99
2023-03-07T05:28:50.820Z,63.67
2023-03-07T05:31:20.276Z,63.27
2023-03-07T05:33:49.425Z,62.94
2023-03-07T05:36:20.067Z,62.72
2023-03-07T05:38:48.546Z,62.29
2023-03-07T05:41:18.234Z,61.99
2023-03-07T05:43:47.254Z,61.28
2023-03-07T05:46:16.037Z,60.71
2023-03-07T05:48:44.549Z,60.31
2023-03-07T05:51:12.907Z,59.88
2023-03-07T05:53:41.794Z,59.34
2023-03-07T05:56:15.809Z,58.77
2023-03-07T05:58:44.600Z,58.46
2023-03-07T06:01:13.497Z,58.02
2023-03-07T06:03:44.387Z,57.52
2023-03-07T06:06:12.925Z,57.03
2023-03-07T06:08:57.296Z,56.73
2023-03-07T06:11:26.582Z,56.20
2023-03-07T06:13:58.813Z,55.96
2023-03-07T06:16:28.287Z,55.91
2023-03-07T06:18:56.944Z,55.52
2023-03-07T06:21:30.854Z,55.69
2023-03-07T06:23:59.442Z,55.62
2023-03-07T06:26:28.126Z,55.78
2023-03-07T06:28:57.227Z,55.66
2023-03-07T06:31:27.077Z,55.82
2023-03-07T06:33:57.497Z,56.11
2023-03-07T06:36:26.573Z,56.37
2023-03-07T06:39:00.608Z,56.65
2023-03-07T06:41:31.420Z,57.17
2023-03-07T06:44:01.236Z,57.47
2023-03-07T06:46:32.687Z,58.11
2023-03-07T06:49:05.368Z,58.48
2023-03-07T06:51:36.787Z,59.02
2023-03-07T06:54:10.542Z,59.46
2023-03-07T06:56:43.585Z,59.94
2023-03-07T06:59:14.470Z,60.15
2023-03-07T07:01:42.843Z,60.49
2023-03-07T07:04:11.816Z,60.86
2023-03-07T07:06:45.539Z,61.07
2023-03-07T07:09:16.896Z,61.33
2023-03-07T07:11:47.323Z,61.62
2023-03-07T07:14:17.248Z,61.76
2023-03-07T07:16:46.520Z,62.11
2023-03-07T07:19:15.392Z,62.12
2023-03-07T07:21:45.591Z,62.22
2023-03-07T07:24:14.458Z,62.36
2023-03-07T07:26:42.883Z,62.52
2023-03-07T07:29:11.857Z,62.52
2023-03-07T07:31:41.127Z,62.75
2023-03-07T07:34:09.969Z,62.87
2023-03-07T07:36:38.667Z,63.06
2023-03-07T07:39:07.443Z,63.13
2023-03-07T07:41:38.254Z,63.22
2023-03-07T07:44:06.934Z,63.51
2023-03-07T07:46:47.386Z,63.63
2023-03-07T07:49:17.720Z,63.93
2023-03-07T07:51:49.171Z,63.95
2023-03-07T07:54:17.561Z,64.03
2023-03-07T07:56:47.064Z,64.22
2023-03-07T07:59:17.478Z,64.34
2023-03-07T08:01:46.283Z,64.46
2023-03-07T08:04:14.567Z,64.61
2023-03-07T08:06:44.595Z,64.70
2023-03-07T08:09:14.815Z,64.91
2023-03-07T08:11:45.541Z,65.05
2023-03-07T08:14:14.333Z,65.15
2023-03-07T08:16:42.918Z,65.27
2023-03-07T08:19:11.197Z,65.25
2023-03-07T08:21:40.116Z,65.40
2023-03-07T08:24:08.396Z,65.50
2023-03-07T08:26:37.200Z,65.58
2023-03-07T08:29:05.653Z,65.65
2023-03-07T08:31:34.464Z,65.71
2023-03-07T08:34:03.435Z,65.77
2023-03-07T08:36:32.440Z,66.12
2023-03-07T08:39:03.117Z,66.24
2023-03-07T08:41:32.542Z,66.38
2023-03-07T08:44:03.512Z,66.52
2023-03-07T08:49:25.937Z,66.99
2023-03-07T08:51:58.227Z,67.20
2023-03-07T08:54:30.121Z,67.24
2023-03-07T08:57:01.033Z,67.31
2023-03-07T08:59:29.732Z,67.29
2023-03-07T09:01:58.550Z,67.00
2023-03-07T09:04:33.519Z,66.95
2023-03-07T09:07:22.325Z,66.65
2023-03-07T09:09:56.760Z,65.78
2023-03-07T09:12:35.391Z,65.27
2023-03-07T09:15:06.001Z,64.91
2023-03-07T09:17:34.600Z,64.44
2023-03-07T09:20:04.618Z,64.02
2023-03-07T09:22:36.162Z,63.55
2023-03-07T09:25:06.567Z,63.08
2023-03-07T09:27:34.894Z,62.48
2023-03-07T09:30:04.194Z,62.05
2023-03-07T09:32:34.046Z,61.91
2023-03-07T09:35:04.207Z,61.52
2023-03-07T09:37:32.486Z,61.48
2023-03-07T09:40:01.535Z,61.46
2023-03-07T09:42:45.633Z,61.75
2023-03-07T09:45:17.624Z,62.15
2023-03-07T09:48:34.224Z,62.34
2023-03-07T09:51:11.695Z,62.69
2023-03-07T09:53:51.761Z,62.43
2023-03-07T09:56:24.901Z,62.32
2023-03-07T09:59:22.771Z,62.36
2023-03-07T10:02:11.806Z,62.56
2023-03-07T10:04:49.422Z,62.03
2023-03-07T10:07:17.775Z,61.33
2023-03-07T10:09:47.075Z,60.44
2023-03-07T10:12:22.113Z,60.42
2023-03-07T10:15:22.884Z,59.93
2023-03-07T10:18:23.119Z,59.35
2023-03-07T10:21:25.873Z,58.48
2023-03-07T10:24:07.025Z,56.61
2023-03-07T10:26:40.962Z,56.53
2023-03-07T10:29:18.246Z,56.23
2023-03-07T10:31:54.365Z,55.86
2023-03-07T10:34:27.336Z,54.88
2023-03-07T10:37:08.819Z,53.90
2023-03-07T10:39:54.483Z,52.71
2023-03-07T10:42:27.434Z,52.45
2023-03-07T10:44:56.975Z,52.85
2023-03-07T10:47:28.166Z,52.95
2023-03-07T10:50:20.353Z,52.14
2023-03-07T10:52:57.542Z,50.86
2023-03-07T10:55:36.099Z,49.94
2023-03-07T10:58:28.711Z,50.07
2023-03-07T11:01:15.554Z,50.17
2023-03-07T11:03:58.739Z,50.27
2023-03-07T11:06:33.890Z,50.13
2023-03-07T11:09:17.945Z,50.23
2023-03-07T11:11:51.140Z,50.33
2023-03-07T11:14:22.253Z,50.20
2023-03-07T11:16:55.892Z,50.34
2023-03-07T11:19:40.859Z,50.50
2023-03-07T11:22:26.541Z,50.56
2023-03-07T11:25:00.537Z,50.36
2023-03-07T11:27:35.059Z,50.21
2023-03-07T11:30:42.297Z,49.81
2023-03-07T11:33:27.853Z,49.68
2023-03-07T11:36:25.539Z,49.34
2023-03-07T11:39:04.044Z,48.75
2023-03-07T11:41:41.542Z,48.52
2023-03-07T11:44:17.600Z,48.47
2023-03-07T11:46:49.025Z,47.97
2023-03-07T11:49:40.887Z,47.54
2023-03-07T11:52:29.850Z,47.44
2023-03-07T11:55:17.174Z,47.13
2023-03-07T11:58:10.747Z,47.27
2023-03-07T12:00:52.851Z,47.31
2023-03-07T12:03:40.004Z,47.35
2023-03-07T12:06:40.000Z,46.53
2023-03-07T12:09:36.129Z,46.05
2023-03-07T12:12:12.294Z,45.96
2023-03-07T12:15:07.914Z,46.25
2023-03-07T12:18:06.606Z,46.49
2023-03-07T12:20:40.529Z,46.35
2023-03-07T12:23:21.083Z,46.15
2023-03-07T12:25:58.578Z,46.59
2023-03-07T12:28:46.870Z,46.53
2023-03-07T12:31:19.127Z,46.42
2023-03-07T12:33:53.654Z,46.59
2023-03-07T12:36:34.390Z,46.72
2023-03-07T12:39:10.849Z,46.89
2023-03-07T12:41:49.192Z,47.18
2023-03-07T12:44:51.766Z,47.09
2023-03-07T12:47:31.001Z,47.13
2023-03-07T12:50:30.102Z,47.13
2023-03-07T12:53:10.885Z,47.08
2023-03-07T12:55:45.708Z,46.95
2023-03-07T12:58:42.149Z,46.95
2023-03-07T13:01:23.259Z,47.12
2023-03-07T13:04:06.485Z,46.97
2023-03-07T13:06:40.108Z,46.66
2023-03-07T13:09:26.923Z,46.67
2023-03-07T13:12:17.044Z,46.71
2023-03-07T13:14:48.626Z,46.67
2023-03-07T13:17:31.036Z,46.57
2023-03-07T13:20:41.499Z,46.08
2023-03-07T13:23:30.356Z,45.78
2023-03-07T13:26:03.874Z,45.72
2023-03-07T13:28:39.841Z,45.71
2023-03-07T13:31:15.778Z,44.64
2023-03-07T13:33:50.003Z,44.80
2023-03-07T13:36:34.252Z,44.91
2023-03-07T13:39:48.401Z,45.27
2023-03-07T13:42:51.561Z,45.23
2023-03-07T13:45:40.494Z,45.42
2023-03-07T13:48:34.304Z,45.41
2023-03-07T13:51:13.191Z,45.50
2023-03-07T13:53:51.630Z,45.50
2023-03-07T13:56:41.644Z,45.72
2023-03-07T13:59:30.711Z,45.76
2023-03-07T14:02:19.521Z,45.78
2023-03-07T14:05:21.567Z,45.58
2023-03-07T14:08:21.370Z,45.52
2023-03-07T14:11:41.373Z,45.64
2023-03-07T14:14:39.595Z,45.67
2023-03-07T14:18:08.463Z,45.23
2023-03-07T14:21:18.393Z,44.47
2023-03-07T14:24:31.858Z,44.64
2023-03-07T14:27:18.712Z,44.84
2023-03-07T14:29:53.929Z,45.07
2023-03-07T14:32:44.847Z,45.27
2023-03-07T14:35:44.463Z,45.35
2023-03-07T14:38:29.224Z,45.30
2023-03-07T14:41:43.247Z,45.15
2023-03-07T14:44:55.672Z,45.32
2023-03-07T14:47:57.329Z,45.48
2023-03-07T15:04:51.491Z,46.30
2023-03-07T15:07:34.281Z,46.42
2023-03-07T15:10:35.500Z,46.53
2023-03-07T15:13:36.338Z,46.73
2023-03-07T15:16:29.920Z,46.87
2023-03-07T15:19:22.431Z,47.05
2023-03-07T15:22:02.982Z,47.20
2023-03-07T15:24:45.141Z,47.31
2023-03-07T15:27:16.040Z,47.29
2023-03-07T15:29:59.656Z,47.27
2023-03-07T15:32:50.923Z,47.31
2023-03-07T15:35:53.558Z,47.30
2023-03-07T15:44:49.808Z,47.42
2023-03-07T15:47:46.660Z,47.58
2023-03-07T15:50:49.913Z,47.72
2023-03-07T15:53:56.727Z,48.02
2023-03-07T15:56:56.031Z,48.09
2023-03-07T16:00:11.578Z,48.26
2023-03-07T16:02:54.264Z,48.55
2023-03-07T16:05:59.785Z,48.79
2023-03-07T16:08:49.272Z,48.96
2023-03-07T16:11:38.114Z,49.02
2023-03-07T16:14:31.625Z,49.10
2023-03-07T16:17:35.624Z,49.24
2023-03-07T16:20:38.698Z,49.46
2023-03-07T16:23:39.675Z,49.58
2023-03-07T16:26:38.603Z,49.72
2023-03-07T16:29:30.060Z,49.68
2023-03-07T16:32:26.824Z,49.69
2023-03-07T16:35:27.145Z,49.65
2023-03-07T16:38:07.755Z,49.85
2023-03-07T16:40:57.657Z,49.98
2023-03-07T16:43:56.567Z,50.17
2023-03-07T16:46:57.839Z,50.32
2023-03-07T16:49:46.840Z,50.42
2023-03-07T16:52:42.681Z,50.79
2023-03-07T16:55:36.676Z,50.98
2023-03-07T16:58:38.359Z,51.17
2023-03-07T17:01:19.929Z,51.47
2023-03-07T17:03:51.120Z,51.79
2023-03-07T17:06:39.651Z,52.25
2023-03-07T17:09:30.132Z,52.59
2023-03-07T17:12:30.297Z,52.83
2023-03-07T17:15:01.545Z,53.07
2023-03-07T17:17:41.090Z,53.15
2023-03-07T17:20:37.795Z,53.35
2023-03-07T17:23:42.984Z,53.31
2023-03-07T17:26:35.854Z,53.41
2023-03-07T17:29:12.929Z,53.62
2023-03-07T17:31:49.761Z,53.72
2023-03-07T17:34:43.678Z,53.81
2023-03-07T17:37:12.810Z,53.75
2023-03-07T17:39:42.996Z,53.90
2023-03-07T17:42:14.255Z,53.99
2023-03-07T17:44:42.833Z,54.15
2023-03-07T17:47:12.036Z,54.37
2023-03-07T17:49:40.538Z,54.43
2023-03-07T17:52:09.208Z,54.47
2023-03-07T17:54:38.591Z,54.59
2023-03-07T17:57:11.311Z,54.49
2023-03-07T17:59:39.980Z,54.56
2023-03-07T18:02:13.293Z,54.66
2023-03-07T18:04:41.678Z,54.71
2023-03-07T18:07:10.187Z,54.77
2023-03-07T18:09:41.418Z,54.91
2023-03-07T18:12:10.931Z,55.12
2023-03-07T18:14:39.385Z,55.18
2023-03-07T18:17:07.660Z,55.37
2023-03-07T18:19:38.684Z,55.62
2023-03-07T18:22:07.102Z,55.86
2023-03-07T18:24:35.900Z,55.98
2023-03-07T18:27:08.756Z,56.06
2023-03-07T18:29:37.695Z,56.12
2023-03-07T18:32:06.639Z,56.31
2023-03-07T18:34:37.816Z,56.45
2023-03-07T18:37:08.527Z,56.61
2023-03-07T18:39:37.623Z,56.67
2023-03-07T18:42:06.003Z,56.85
2023-03-07T18:44:34.485Z,57.02
2023-03-07T18:47:06.446Z,57.32
2023-03-07T18:49:35.343Z,57.32
2023-03-07T18:52:03.628Z,57.52
2023-03-07T18:54:34.502Z,57.51
2023-03-07T18:57:05.040Z,57.42
2023-03-07T18:59:33.682Z,57.46
2023-03-07T19:02:03.451Z,57.37
2023-03-07T19:04:32.288Z,57.74
2023-03-07T19:07:01.075Z,57.97
2023-03-07T19:09:31.494Z,57.98
2023-03-07T19:12:00.827Z,58.07
2023-03-07T19:14:30.123Z,58.30
2023-03-07T19:16:58.499Z,58.50
2023-03-07T19:19:37.846Z,58.68
2023-03-07T19:22:06.317Z,58.80
2023-03-07T19:24:34.629Z,58.97
2023-03-07T19:27:02.943Z,59.16
2023-03-07T19:29:31.566Z,59.16
2023-03-07T19:32:05.191Z,59.48
2023-03-07T19:34:35.702Z,59.58
2023-03-07T19:37:04.385Z,59.81
2023-03-07T19:39:33.482Z,59.91
2023-03-07T19:42:02.168Z,60.08
2023-03-07T19:44:35.259Z,60.31
2023-03-07T19:47:03.711Z,60.45
2023-03-07T19:49:32.219Z,60.60
2023-03-07T19:52:01.175Z,60.66
2023-03-07T19:54:31.807Z,61.05
2023-03-07T19:57:00.233Z,61.32
2023-03-07T19:59:28.827Z,61.42
2023-03-07T20:01:57.515Z,61.56
2023-03-07T20:04:26.316Z,61.51
2023-03-07T20:06:54.883Z,61.58
2023-03-07T20:09:23.630Z,61.75
2023-03-07T20:12:02.258Z,61.91
2023-03-07T20:14:31.118Z,61.86
2023-03-07T20:17:00.101Z,62.13
2023-03-07T20:19:28.464Z,62.24
2023-03-07T20:22:00.230Z,62.26
2023-03-07T20:24:30.489Z,62.29
2023-03-07T20:26:59.627Z,62.62
2023-03-07T20:29:28.343Z,62.67
2023-03-07T20:31:56.719Z,62.86
2023-03-07T20:34:25.542Z,63.01
2023-03-07T20:36:55.337Z,63.05
2023-03-07T20:39:24.218Z,63.15
2023-03-07T20:41:54.457Z,63.38
2023-03-07T20:44:23.151Z,63.43
2023-03-07T20:46:51.618Z,63.76
2023-03-07T20:49:20.103Z,63.70
2023-03-07T20:51:49.096Z,64.11
2023-03-07T20:54:18.332Z,64.09
2023-03-07T20:56:47.319Z,64.33
2023-03-07T20:59:18.789Z,64.53
2023-03-07T21:01:47.275Z,64.62
2023-03-07T21:04:17.979Z,64.76
2023-03-07T21:06:47.608Z,64.79
2023-03-07T21:09:17.153Z,64.82
2023-03-07T21:11:47.757Z,64.98
2023-03-07T21:14:18.159Z,65.10
2023-03-07T21:16:46.529Z,65.31
2023-03-07T21:19:15.324Z,65.52
2023-03-07T21:21:43.823Z,65.58
2023-03-07T21:24:13.297Z,65.45
2023-03-07T21:26:43.753Z,65.62
2023-03-07T21:29:14.189Z,65.62
2023-03-07T21:31:44.036Z,65.67
2023-03-07T21:34:14.949Z,65.79
2023-03-07T21:36:43.232Z,65.85
2023-03-07T21:39:14.252Z,65.91
2023-03-07T21:41:42.737Z,66.09
2023-03-07T21:44:12.545Z,66.06
2023-03-07T21:46:42.253Z,66.25
2023-03-07T21:49:10.740Z,66.19
2023-03-07T21:51:39.324Z,66.29
2023-03-07T21:54:07.832Z,66.25
2023-03-07T21:56:36.429Z,66.33
2023-03-07T21:59:05.036Z,66.62
2023-03-07T22:01:39.509Z,66.49
2023-03-07T22:04:08.099Z,66.72
2023-03-07T22:06:36.670Z,66.84
2023-03-07T22:09:05.962Z,66.91
2023-03-07T22:11:34.214Z,66.85
2023-03-07T22:14:04.167Z,66.83
2023-03-07T22:16:36.187Z,66.79
2023-03-07T22:19:04.843Z,67.03
2023-03-07T22:21:33.918Z,66.85
2023-03-07T22:24:06.094Z,67.03
2023-03-07T22:26:34.557Z,66.69
2023-03-07T22:29:03.679Z,67.02
2023-03-07T22:31:33.858Z,67.08
2023-03-07T22:34:02.886Z,66.97
2023-03-07T22:36:31.277Z,67.06
2023-03-07T22:38:59.449Z,66.93
2023-03-07T22:41:27.976Z,66.90
2023-03-07T22:43:57.339Z,66.92
2023-03-07T22:46:25.696Z,66.96
2023-03-07T22:48:55.437Z,67.03
2023-03-07T22:51:26.003Z,66.79
2023-03-07T22:53:56.442Z,66.89
2023-03-07T22:59:15.951Z,67.00
2023-03-07T23:01:55.346Z,66.81
2023-03-07T23:04:47.767Z,66.85
2023-03-07T23:07:24.320Z,66.94
2023-03-07T23:09:57.956Z,67.03
2023-03-07T23:12:44.192Z,66.96
2023-03-07T23:15:15.878Z,67.09
2023-03-07T23:17:51.639Z,67.11
2023-03-07T23:20:41.544Z,67.04
2023-03-07T23:26:47.850Z,67.07
2023-03-07T23:29:16.589Z,67.30
2023-03-07T23:31:45.320Z,67.47
2023-03-07T23:34:20.747Z,67.60
2023-03-07T23:36:50.172Z,67.69
2023-03-07T23:39:19.372Z,67.85
2023-03-07T23:41:47.648Z,67.93
2023-03-07T23:44:16.467Z,68.05
2023-03-07T23:46:45.329Z,67.87
2023-03-07T23:49:15.568Z,67.93
2023-03-07T23:51:45.068Z,67.83
2023-03-07T23:54:14.366Z,67.94
2023-03-07T23:56:42.855Z,67.97
2023-03-07T23:59:11.210Z,68.05
